createdAt,value
2023-05-16T00:01:09.369Z,10.50
2023-05-16T00:03:39.584Z,10.90
2023-05-16T00:06:07.176Z,10.50
2023-05-16T00:11:01.995Z,10.50
2023-05-16T00:16:00.361Z,10.60
2023-05-16T00:18:27.647Z,10.60
2023-05-16T00:20:55.492Z,10.60
2023-05-16T00:23:22.763Z,11.20
2023-05-16T00:25:50.462Z,10.60
2023-05-16T00:28:17.799Z,10.60
2023-05-16T00:33:14.724Z,10.50
2023-05-16T00:35:42.128Z,10.60
2023-05-16T00:38:09.665Z,10.80
2023-05-16T00:40:37.805Z,10.80
2023-05-16T00:43:05.230Z,10.80
2023-05-16T00:45:32.599Z,10.40
2023-05-16T00:48:01.062Z,10.30
2023-05-16T00:50:28.953Z,10.80
2023-05-16T00:55:24.740Z,10.50
2023-05-16T00:57:52.900Z,10.70
2023-05-16T01:00:20.521Z,10.70
2023-05-16T01:02:48.330Z,10.50
2023-05-16T01:05:16.106Z,10.70
2023-05-16T01:07:44.048Z,10.60
2023-05-16T01:10:12.011Z,10.60
2023-05-16T01:13:10.260Z,10.60
2023-05-16T01:16:06.703Z,10.50
2023-05-16T01:18:47.332Z,10.40
2023-05-16T01:21:32.567Z,10.30
2023-05-16T01:24:09.289Z,10.40
2023-05-16T01:26:38.953Z,10.30
2023-05-16T01:29:08.064Z,10.40
2023-05-16T01:31:36.067Z,10.80
2023-05-16T01:34:03.514Z,10.10
2023-05-16T01:36:55.989Z,10.60
2023-05-16T01:39:59.502Z,10.20
2023-05-16T01:42:32.631Z,10.20
2023-05-16T01:45:24.843Z,10.40
2023-05-16T01:48:10.756Z,9.40
2023-05-16T01:50:47.870Z,10.50
2023-05-16T01:53:20.782Z,10.20
2023-05-16T01:55:51.893Z,10.20
2023-05-16T01:58:25.033Z,10.30
2023-05-16T02:01:01.241Z,11.40
2023-05-16T02:05:56.816Z,10.30
2023-05-16T02:08:26.380Z,10.40
2023-05-16T02:10:54.338Z,10.10
2023-05-16T02:13:22.080Z,10.30
2023-05-16T02:15:49.722Z,10.00
2023-05-16T02:18:18.881Z,9.90
2023-05-16T02:20:46.208Z,9.80
2023-05-16T02:23:13.537Z,12.00
2023-05-16T02:25:40.820Z,10.40
2023-05-16T02:28:10.574Z,9.50
2023-05-16T02:30:38.007Z,9.60
2023-05-16T02:33:05.483Z,9.60
2023-05-16T02:35:32.919Z,9.70
2023-05-16T02:38:00.847Z,9.60
2023-05-16T02:40:28.198Z,10.00
2023-05-16T02:42:56.858Z,9.60
2023-05-16T02:45:24.218Z,9.60
2023-05-16T02:47:51.586Z,10.60
2023-05-16T02:50:19.473Z,9.50
2023-05-16T02:52:47.330Z,9.40
2023-05-16T02:57:44.944Z,9.40
2023-05-16T03:00:15.710Z,9.40
2023-05-16T03:02:45.499Z,9.10
2023-05-16T03:05:13.456Z,10.60
2023-05-16T03:07:41.379Z,9.30
2023-05-16T03:10:09.163Z,9.30
2023-05-16T03:12:36.494Z,9.20
2023-05-16T03:15:04.341Z,9.20
2023-05-16T03:17:31.959Z,9.00
2023-05-16T03:19:59.277Z,9.20
2023-05-16T03:22:26.597Z,9.10
2023-05-16T03:24:53.994Z,9.20
2023-05-16T03:27:23.268Z,9.80
2023-05-16T03:29:50.617Z,9.10
2023-05-16T03:32:18.029Z,9.30
2023-05-16T03:34:46.867Z,9.20
2023-05-16T03:37:16.171Z,10.10
2023-05-16T03:39:43.829Z,8.90
2023-05-16T03:42:11.976Z,9.20
2023-05-16T03:44:39.580Z,9.10
2023-05-16T03:47:07.003Z,9.20
2023-05-16T03:49:34.326Z,10.20
2023-05-16T03:52:01.813Z,9.80
2023-05-16T03:54:29.143Z,8.90
2023-05-16T03:56:56.528Z,9.00
2023-05-16T03:59:24.500Z,9.00
2023-05-16T04:01:51.867Z,9.00
2023-05-16T04:04:19.273Z,8.60
2023-05-16T04:06:46.690Z,8.70
2023-05-16T04:09:14.191Z,8.80
2023-05-16T04:11:41.459Z,8.80
2023-05-16T04:14:08.807Z,9.10
2023-05-16T04:16:36.163Z,9.70
2023-05-16T04:19:03.963Z,9.30
2023-05-16T04:21:32.005Z,8.60
2023-05-16T04:23:59.794Z,9.70
2023-05-16T04:26:27.529Z,8.50
2023-05-16T04:28:54.806Z,8.40
2023-05-16T04:31:24.563Z,8.90
2023-05-16T04:33:53.008Z,8.60
2023-05-16T04:36:21.384Z,8.50
2023-05-16T04:38:48.682Z,8.60
2023-05-16T04:41:16.590Z,8.50
2023-05-16T04:43:44.678Z,8.60
2023-05-16T04:46:12.513Z,8.60
2023-05-16T04:48:39.795Z,10.50
2023-05-16T04:51:07.403Z,8.60
2023-05-16T04:53:34.827Z,8.60
2023-05-16T04:56:02.695Z,8.80
2023-05-16T04:58:30.114Z,10.00
2023-05-16T05:00:57.892Z,8.70
2023-05-16T05:03:25.326Z,9.40
2023-05-16T05:05:52.625Z,9.20
2023-05-16T05:08:19.923Z,8.50
2023-05-16T05:10:47.738Z,8.90
2023-05-16T05:13:15.266Z,8.80
2023-05-16T05:15:42.600Z,8.50
2023-05-16T05:18:10.292Z,9.80
2023-05-16T05:20:38.041Z,9.70
2023-05-16T05:23:05.555Z,8.90
2023-05-16T05:25:35.875Z,9.50
2023-05-16T05:28:04.773Z,8.90
2023-05-16T05:30:32.181Z,8.90
2023-05-16T05:32:59.562Z,9.00
2023-05-16T05:35:27.276Z,9.00
2023-05-16T05:37:54.721Z,8.80
2023-05-16T05:40:22.129Z,10.20
2023-05-16T05:42:49.394Z,9.90
2023-05-16T05:45:16.859Z,9.40
2023-05-16T05:47:44.484Z,9.30
2023-05-16T05:50:13.810Z,9.60
2023-05-16T05:52:41.653Z,9.60
2023-05-16T05:55:09.217Z,9.90
2023-05-16T05:57:36.545Z,9.50
2023-05-16T06:00:05.332Z,10.10
2023-05-16T06:02:36.013Z,9.70
2023-05-16T06:05:03.592Z,9.90
2023-05-16T06:09:58.653Z,10.00
2023-05-16T06:12:25.912Z,10.30
2023-05-16T06:14:53.256Z,10.20
2023-05-16T06:17:20.726Z,11.00
2023-05-16T06:19:48.048Z,10.20
2023-05-16T06:22:15.710Z,10.20
2023-05-16T06:24:43.886Z,10.30
2023-05-16T06:27:11.805Z,10.40
2023-05-16T06:29:39.391Z,10.50
2023-05-16T06:32:07.389Z,10.70
2023-05-16T06:34:34.714Z,10.70
2023-05-16T06:39:31.291Z,10.80
2023-05-16T06:41:58.891Z,10.80
2023-05-16T06:46:55.054Z,10.90
2023-05-16T06:49:24.033Z,10.80
2023-05-16T06:51:52.544Z,11.20
2023-05-16T06:54:20.179Z,10.90
2023-05-16T06:56:47.533Z,10.90
2023-05-16T06:59:15.698Z,12.20
2023-05-16T07:01:43.087Z,10.90
2023-05-16T07:04:10.537Z,11.10
2023-05-16T07:06:38.196Z,11.30
2023-05-16T07:09:05.854Z,11.30
2023-05-16T07:11:34.551Z,11.20
2023-05-16T07:14:01.901Z,11.30
2023-05-16T07:16:29.373Z,11.40
2023-05-16T07:18:57.046Z,11.80
2023-05-16T07:21:24.677Z,11.50
2023-05-16T07:23:52.031Z,11.90
2023-05-16T07:26:22.426Z,12.40
2023-05-16T07:28:53.374Z,11.60
2023-05-16T07:31:20.876Z,12.40
2023-05-16T07:33:49.225Z,11.90
2023-05-16T07:36:17.585Z,11.80
2023-05-16T07:38:47.046Z,11.80
2023-05-16T07:41:14.675Z,11.90
2023-05-16T07:43:42.299Z,12.30
2023-05-16T07:46:11.172Z,12.30
2023-05-16T07:48:38.647Z,12.60
2023-05-16T07:51:06.229Z,13.20
2023-05-16T07:53:33.879Z,13.00
2023-05-16T07:56:01.321Z,12.20
2023-05-16T07:58:29.040Z,12.60
2023-05-16T08:00:56.483Z,13.20
2023-05-16T08:03:24.170Z,10.20
2023-05-16T08:05:51.979Z,12.50
2023-05-16T08:08:19.513Z,13.80
2023-05-16T08:10:47.273Z,13.10
2023-05-16T08:13:14.630Z,13.90
2023-05-16T08:15:42.830Z,14.10
2023-05-16T08:18:15.104Z,13.20
2023-05-16T08:20:42.786Z,13.00
2023-05-16T08:23:10.418Z,13.20
2023-05-16T08:25:38.055Z,13.10
2023-05-16T08:28:05.605Z,13.60
2023-05-16T08:30:32.996Z,13.50
2023-05-16T08:33:04.814Z,13.30
2023-05-16T08:35:32.798Z,13.30
2023-05-16T08:38:00.481Z,14.50
2023-05-16T08:40:29.294Z,13.60
2023-05-16T08:42:56.763Z,14.00
2023-05-16T08:45:24.712Z,13.50
2023-05-16T08:47:55.809Z,13.60
2023-05-16T08:50:25.162Z,13.70
2023-05-16T08:52:53.751Z,14.30
2023-05-16T08:55:22.338Z,13.80
2023-05-16T08:57:53.596Z,13.70
2023-05-16T09:00:22.537Z,15.00
2023-05-16T09:02:50.280Z,13.80
2023-05-16T09:05:18.552Z,14.20
2023-05-16T09:07:46.225Z,14.00
2023-05-16T09:10:14.106Z,14.50
2023-05-16T09:12:42.413Z,14.30
2023-05-16T09:15:11.420Z,14.10
2023-05-16T09:17:43.772Z,14.10
2023-05-16T09:20:16.530Z,14.20
2023-05-16T09:22:57.837Z,14.30
2023-05-16T09:25:31.076Z,14.30
2023-05-16T09:28:02.391Z,14.50
2023-05-16T09:30:31.894Z,14.80
2023-05-16T09:32:59.734Z,15.10
2023-05-16T09:37:58.304Z,15.50
2023-05-16T09:40:25.769Z,15.90
2023-05-16T09:43:04.403Z,15.50
2023-05-16T09:45:34.292Z,15.70
2023-05-16T09:48:10.173Z,15.40
2023-05-16T09:50:38.119Z,15.50
2023-05-16T09:53:06.116Z,16.20
2023-05-16T09:55:33.901Z,15.50
2023-05-16T09:58:01.779Z,14.50
2023-05-16T10:00:33.760Z,15.20
2023-05-16T10:03:05.261Z,15.60
2023-05-16T10:05:34.693Z,16.80
2023-05-16T10:08:03.949Z,15.50
2023-05-16T10:10:34.954Z,16.20
2023-05-16T10:13:04.017Z,15.90
2023-05-16T10:15:31.839Z,15.50
2023-05-16T10:18:00.732Z,15.70
2023-05-16T10:20:28.786Z,15.70
2023-05-16T10:22:58.136Z,16.10
2023-05-16T10:25:41.334Z,16.00
2023-05-16T10:28:12.891Z,16.00
2023-05-16T10:30:45.701Z,16.30
2023-05-16T10:33:17.961Z,17.20
2023-05-16T10:35:46.691Z,16.60
2023-05-16T10:38:17.441Z,17.20
2023-05-16T10:40:45.595Z,17.10
2023-05-16T10:43:27.094Z,17.00
2023-05-16T10:46:02.835Z,17.00
2023-05-16T10:48:38.892Z,17.10
2023-05-16T10:51:33.609Z,17.60
2023-05-16T10:54:10.152Z,17.30
2023-05-16T10:56:37.925Z,17.10
2023-05-16T10:59:22.029Z,17.00
2023-05-16T11:01:53.963Z,16.90
2023-05-16T11:06:53.734Z,17.00
2023-05-16T11:09:23.565Z,15.50
2023-05-16T11:12:04.106Z,17.30
2023-05-16T11:14:34.300Z,17.20
2023-05-16T11:17:13.898Z,17.20
2023-05-16T11:19:47.233Z,17.40
2023-05-16T11:22:23.768Z,17.70
2023-05-16T11:24:54.116Z,18.00
2023-05-16T11:27:32.572Z,18.10
2023-05-16T11:30:05.830Z,18.40
2023-05-16T11:32:44.482Z,18.70
2023-05-16T11:35:25.514Z,18.60
2023-05-16T11:37:53.711Z,18.60
2023-05-16T11:42:49.776Z,18.40
2023-05-16T11:45:26.024Z,18.80
2023-05-16T11:47:53.636Z,18.80
2023-05-16T11:50:23.549Z,18.90
2023-05-16T11:52:56.390Z,19.00
2023-05-16T11:55:40.422Z,18.00
2023-05-16T11:58:09.627Z,19.20
2023-05-16T12:00:37.102Z,19.40
2023-05-16T12:03:06.387Z,19.50
2023-05-16T12:05:35.527Z,19.80
2023-05-16T12:08:05.793Z,19.50
2023-05-16T12:10:36.404Z,19.40
2023-05-16T12:13:04.521Z,19.60
2023-05-16T12:15:32.321Z,19.40
2023-05-16T12:18:00.216Z,19.60
2023-05-16T12:20:27.642Z,19.90
2023-05-16T12:22:58.294Z,19.80
2023-05-16T12:25:32.001Z,20.00
2023-05-16T12:28:01.717Z,19.90
2023-05-16T12:30:31.462Z,20.00
2023-05-16T12:33:18.028Z,20.60
2023-05-16T12:35:47.303Z,21.00
2023-05-16T12:38:17.019Z,21.30
2023-05-16T12:40:44.713Z,21.20
2023-05-16T12:43:23.098Z,21.20
2023-05-16T12:45:53.072Z,21.10
2023-05-16T12:48:22.004Z,21.00
2023-05-16T12:50:50.933Z,21.30
2023-05-16T12:53:18.948Z,21.60
2023-05-16T12:55:46.581Z,21.60
2023-05-16T12:58:14.195Z,21.80
2023-05-16T13:00:41.805Z,22.10
2023-05-16T13:03:09.235Z,22.10
2023-05-16T13:05:36.821Z,22.10
2023-05-16T13:08:04.876Z,22.20
2023-05-16T13:10:32.657Z,22.20
2023-05-16T13:13:00.472Z,22.20
2023-05-16T13:15:28.457Z,22.20
2023-05-16T13:17:56.464Z,22.50
2023-05-16T13:20:23.967Z,22.30
2023-05-16T13:22:51.419Z,22.70
2023-05-16T13:25:19.096Z,22.60
2023-05-16T13:27:46.466Z,22.70
2023-05-16T13:30:13.824Z,22.60
2023-05-16T13:32:42.805Z,22.80
2023-05-16T13:37:38.597Z,23.00
2023-05-16T13:40:10.621Z,22.90
2023-05-16T13:42:38.711Z,23.30
2023-05-16T13:45:07.087Z,23.60
2023-05-16T13:47:34.566Z,23.70
2023-05-16T13:50:06.099Z,23.70
2023-05-16T13:52:35.043Z,23.20
2023-05-16T13:55:04.450Z,23.10
2023-05-16T13:57:33.011Z,23.10
2023-05-16T14:02:40.558Z,23.60
2023-05-16T14:05:09.590Z,24.00
2023-05-16T14:07:37.149Z,24.20
2023-05-16T14:10:07.078Z,23.90
2023-05-16T14:12:34.650Z,23.00
2023-05-16T14:15:02.059Z,23.70
2023-05-16T14:17:29.666Z,23.70
2023-05-16T14:19:57.347Z,24.00
2023-05-16T14:22:24.751Z,24.10
2023-05-16T14:24:52.037Z,24.40
2023-05-16T14:27:21.993Z,24.70
2023-05-16T14:29:49.295Z,25.20
2023-05-16T14:32:16.934Z,25.50
2023-05-16T14:34:44.541Z,25.50
2023-05-16T14:37:12.322Z,25.40
2023-05-16T14:39:41.985Z,25.00
2023-05-16T14:42:09.304Z,24.70
2023-05-16T14:44:36.658Z,24.50
2023-05-16T14:47:04.556Z,24.10
2023-05-16T14:49:32.529Z,23.80
2023-05-16T14:51:59.978Z,23.90
2023-05-16T14:59:23.199Z,23.90
2023-05-16T15:01:50.599Z,24.00
2023-05-16T15:04:17.981Z,24.10
2023-05-16T15:06:45.536Z,23.90
2023-05-16T15:09:13.562Z,23.60
2023-05-16T15:11:41.242Z,23.20
2023-05-16T15:14:08.638Z,22.70
2023-05-16T15:16:36.026Z,22.40
2023-05-16T15:19:03.586Z,22.00
2023-05-16T15:21:32.706Z,21.90
2023-05-16T15:24:00.859Z,21.90
2023-05-16T15:26:28.405Z,21.70
2023-05-16T15:28:55.738Z,21.50
2023-05-16T15:31:23.198Z,20.90
2023-05-16T15:33:50.690Z,20.40
2023-05-16T15:36:18.323Z,20.10
2023-05-16T15:38:46.808Z,20.00
2023-05-16T15:41:26.925Z,19.90
2023-05-16T15:44:03.228Z,19.80
2023-05-16T15:46:33.378Z,19.50
2023-05-16T15:49:01.169Z,19.50
2023-05-16T15:51:28.551Z,19.60
2023-05-16T15:53:55.909Z,19.80
2023-05-16T15:56:23.309Z,19.80
2023-05-16T15:58:50.821Z,19.80
2023-05-16T16:01:18.377Z,19.70
2023-05-16T16:03:46.407Z,19.50
2023-05-16T16:06:14.152Z,19.40
2023-05-16T16:08:41.456Z,19.30
2023-05-16T16:11:09.302Z,19.20
2023-05-16T16:13:36.871Z,19.20
2023-05-16T16:16:04.445Z,19.10
2023-05-16T16:18:32.075Z,18.90
2023-05-16T16:20:59.466Z,18.90
2023-05-16T16:23:26.818Z,18.80
2023-05-16T16:25:54.377Z,18.80
2023-05-16T16:28:22.701Z,18.80
2023-05-16T16:30:50.775Z,19.00
2023-05-16T16:33:18.505Z,19.00
2023-05-16T16:35:46.158Z,19.00
2023-05-16T16:38:13.532Z,18.90
2023-05-16T16:40:41.623Z,18.30
2023-05-16T16:43:09.162Z,19.00
2023-05-16T16:45:36.600Z,19.00
2023-05-16T16:48:04.448Z,19.00
2023-05-16T16:50:32.812Z,18.90
2023-05-16T16:55:31.615Z,18.90
2023-05-16T16:57:58.985Z,18.80
2023-05-16T17:00:26.343Z,18.70
2023-05-16T17:05:21.680Z,18.70
2023-05-16T17:07:48.956Z,18.70
2023-05-16T17:10:17.306Z,18.90
2023-05-16T17:12:49.236Z,19.10
2023-05-16T17:15:19.846Z,19.40
2023-05-16T17:17:49.584Z,19.20
2023-05-16T17:20:17.150Z,19.10
2023-05-16T17:22:46.156Z,19.30
2023-05-16T17:25:13.449Z,19.10
2023-05-16T17:30:10.499Z,19.90
2023-05-16T17:35:07.476Z,19.90
2023-05-16T17:37:34.839Z,19.90
2023-05-16T17:40:02.288Z,20.10
2023-05-16T17:42:29.642Z,21.50
2023-05-16T17:44:57.150Z,21.50
2023-05-16T17:47:25.668Z,21.70
2023-05-16T17:52:22.159Z,22.30
2023-05-16T17:54:49.626Z,22.00
2023-05-16T17:57:16.914Z,21.70
2023-05-16T17:59:44.303Z,20.60
2023-05-16T18:02:15.238Z,20.80
2023-05-16T18:07:10.621Z,19.80
2023-05-16T18:09:38.637Z,19.40
2023-05-16T18:12:07.147Z,19.10
2023-05-16T18:14:34.495Z,18.70
2023-05-16T18:17:02.036Z,18.70
2023-05-16T18:19:30.826Z,19.00
2023-05-16T18:22:00.015Z,18.90
2023-05-16T18:24:27.433Z,18.90
2023-05-16T18:26:54.869Z,18.80
2023-05-16T18:29:23.581Z,18.80
2023-05-16T18:31:51.189Z,18.80
2023-05-16T18:34:18.598Z,18.50
2023-05-16T18:36:45.945Z,18.60
2023-05-16T18:39:13.583Z,18.30
2023-05-16T18:41:41.265Z,18.10
2023-05-16T18:44:08.598Z,18.10
2023-05-16T18:46:36.268Z,17.90
2023-05-16T18:49:03.757Z,17.80
2023-05-16T18:51:32.263Z,17.70
2023-05-16T18:54:00.112Z,17.70
2023-05-16T18:56:27.646Z,17.50
2023-05-16T18:58:55.246Z,17.40
2023-05-16T19:03:50.742Z,17.20
2023-05-16T19:06:18.425Z,17.20
2023-05-16T19:08:47.874Z,17.10
2023-05-16T19:11:17.748Z,17.10
2023-05-16T19:13:45.662Z,17.20
2023-05-16T19:16:13.810Z,16.90
2023-05-16T19:18:41.457Z,17.00
2023-05-16T19:21:11.149Z,17.00
2023-05-16T19:26:06.168Z,16.90
2023-05-16T19:28:34.591Z,16.90
2023-05-16T19:31:01.918Z,16.80
2023-05-16T19:33:29.576Z,16.90
2023-05-16T19:35:57.890Z,17.90
2023-05-16T19:38:26.229Z,16.70
2023-05-16T19:40:53.804Z,16.70
2023-05-16T19:45:49.269Z,16.40
2023-05-16T19:48:17.472Z,16.40
2023-05-16T19:50:44.923Z,16.30
2023-05-16T19:53:12.457Z,16.20
2023-05-16T19:55:40.301Z,16.20
2023-05-16T20:00:38.050Z,16.00
2023-05-16T20:03:05.635Z,16.00
2023-05-16T20:05:34.025Z,15.60
2023-05-16T20:08:02.716Z,15.40
2023-05-16T20:10:31.248Z,15.40
2023-05-16T20:12:58.656Z,15.40
2023-05-16T20:15:28.739Z,15.10
2023-05-16T20:17:56.896Z,15.20
2023-05-16T20:22:52.459Z,15.00
2023-05-16T20:25:19.891Z,14.90
2023-05-16T20:27:47.437Z,14.70
2023-05-16T20:30:15.058Z,14.90
2023-05-16T20:32:42.553Z,14.70
2023-05-16T20:35:13.507Z,14.70
2023-05-16T20:37:41.350Z,14.20
2023-05-16T20:40:09.482Z,13.70
2023-05-16T20:42:36.943Z,14.50
2023-05-16T20:45:06.238Z,14.30
2023-05-16T20:47:33.886Z,14.30
2023-05-16T20:50:01.839Z,14.30
2023-05-16T20:52:29.284Z,14.40
2023-05-16T20:54:58.532Z,14.80
2023-05-16T20:57:28.732Z,14.00
2023-05-16T20:59:56.816Z,14.00
2023-05-16T21:02:24.258Z,14.00
2023-05-16T21:04:52.016Z,14.00
2023-05-16T21:09:48.925Z,13.80
2023-05-16T21:12:16.382Z,13.80
2023-05-16T21:14:46.693Z,14.40
2023-05-16T21:17:14.090Z,13.70
2023-05-16T21:19:41.632Z,13.70
2023-05-16T21:22:09.122Z,13.70
2023-05-16T21:24:37.642Z,13.60
2023-05-16T21:27:05.400Z,12.90
2023-05-16T21:29:32.901Z,13.40
2023-05-16T21:32:00.544Z,14.50
2023-05-16T21:34:28.023Z,13.50
2023-05-16T21:36:55.655Z,13.40
2023-05-16T21:39:23.031Z,14.60
2023-05-16T21:41:50.460Z,13.90
2023-05-16T21:44:18.526Z,14.20
2023-05-16T21:46:46.142Z,13.30
2023-05-16T21:49:13.605Z,13.30
2023-05-16T21:51:41.251Z,13.30
2023-05-16T21:54:08.778Z,13.40
2023-05-16T21:56:36.229Z,13.40
2023-05-16T21:59:04.096Z,13.30
2023-05-16T22:01:31.721Z,13.30
2023-05-16T22:03:59.444Z,14.10
2023-05-16T22:06:27.095Z,13.40
2023-05-16T22:08:55.149Z,14.40
2023-05-16T22:11:22.673Z,13.20
2023-05-16T22:13:50.848Z,13.30
2023-05-16T22:16:18.812Z,13.80
2023-05-16T22:18:46.484Z,13.50
2023-05-16T22:21:16.308Z,13.90
2023-05-16T22:23:43.834Z,12.90
2023-05-16T22:26:11.350Z,13.00
2023-05-16T22:28:38.751Z,13.00
2023-05-16T22:31:06.404Z,13.80
2023-05-16T22:33:33.952Z,13.00
2023-05-16T22:36:03.180Z,13.00
2023-05-16T22:38:31.921Z,12.80
2023-05-16T22:40:59.491Z,12.80
2023-05-16T22:43:26.934Z,12.80
2023-05-16T22:45:54.346Z,12.90
2023-05-16T22:48:21.728Z,12.70
2023-05-16T22:50:49.259Z,12.60
2023-05-16T22:53:16.655Z,13.40
2023-05-16T22:55:44.162Z,12.70
2023-05-16T22:58:11.572Z,12.50
2023-05-16T23:00:39.104Z,12.50
2023-05-16T23:03:06.566Z,12.90
2023-05-16T23:05:34.114Z,12.40
2023-05-16T23:08:02.508Z,12.50
2023-05-16T23:10:30.391Z,12.40
2023-05-16T23:12:57.817Z,12.80
2023-05-16T23:15:25.450Z,12.40
2023-05-16T23:17:53.035Z,12.40
2023-05-16T23:20:20.804Z,12.20
2023-05-16T23:22:48.494Z,12.80
2023-05-16T23:25:15.998Z,12.10
2023-05-16T23:27:43.520Z,12.20
2023-05-16T23:30:11.445Z,12.30
2023-05-16T23:32:38.938Z,11.90
2023-05-16T23:35:06.901Z,12.60
2023-05-16T23:37:34.462Z,11.80
2023-05-16T23:40:01.827Z,11.80
2023-05-16T23:42:29.189Z,11.70
2023-05-16T23:44:56.648Z,12.60
2023-05-16T23:47:24.378Z,11.90
2023-05-16T23:49:51.774Z,11.40
2023-05-16T23:52:19.173Z,12.60
2023-05-16T23:54:46.695Z,11.60
2023-05-16T23:57:14.025Z,12.60
2023-05-16T23:59:41.651Z,11.60
